createdAt,value
2022-08-22T00:02:49.029Z,18.20
2022-08-22T00:03:12.559Z,17.70
2022-08-22T00:04:19.220Z,17.70
2022-08-22T00:07:06.549Z,17.60
2022-08-22T00:09:52.331Z,17.70
2022-08-22T00:12:29.340Z,17.60
2022-08-22T00:15:12.726Z,17.50
2022-08-22T00:18:20.287Z,17.40
2022-08-22T00:20:54.693Z,17.40
2022-08-22T00:23:28.653Z,17.30
2022-08-22T00:26:02.543Z,17.20
2022-08-22T00:28:44.186Z,17.20
2022-08-22T00:31:33.769Z,17.10
2022-08-22T00:34:34.473Z,17.00
2022-08-22T00:37:20.250Z,17.00
2022-08-22T00:40:22.554Z,17.00
2022-08-22T00:43:08.424Z,17.00
2022-08-22T00:45:54.129Z,17.00
2022-08-22T00:48:44.440Z,16.90
2022-08-22T00:51:32.705Z,16.80
2022-08-22T00:54:28.802Z,16.80
2022-08-22T00:57:22.221Z,16.70
2022-08-22T01:00:35.277Z,16.70
2022-08-22T01:03:40.437Z,16.70
2022-08-22T01:06:32.056Z,16.70
2022-08-22T01:09:27.096Z,16.60
2022-08-22T01:11:59.713Z,16.60
2022-08-22T01:14:41.660Z,16.60
2022-08-22T01:17:26.723Z,16.60
2022-08-22T01:20:36.638Z,16.50
2022-08-22T01:23:28.259Z,16.40
2022-08-22T01:26:20.149Z,16.30
2022-08-22T01:29:05.743Z,16.20
2022-08-22T01:31:58.657Z,16.10
2022-08-22T01:34:49.996Z,16.00
2022-08-22T01:37:51.992Z,15.90
2022-08-22T01:40:31.884Z,15.80
2022-08-22T01:43:59.419Z,15.80
2022-08-22T01:46:49.020Z,15.70
2022-08-22T01:49:27.809Z,15.70
2022-08-22T01:52:09.854Z,15.70
2022-08-22T01:54:52.056Z,15.80
2022-08-22T01:57:19.310Z,15.80
2022-08-22T01:59:52.971Z,15.70
2022-08-22T02:02:53.607Z,15.60
2022-08-22T02:05:37.071Z,15.60
2022-08-22T02:08:44.767Z,15.70
2022-08-22T02:11:31.385Z,15.70
2022-08-22T02:14:21.179Z,15.60
2022-08-22T02:17:08.846Z,15.60
2022-08-22T02:19:48.066Z,15.60
2022-08-22T02:22:51.569Z,15.50
2022-08-22T02:25:25.735Z,15.40
2022-08-22T02:28:09.730Z,15.40
2022-08-22T02:30:49.361Z,15.30
2022-08-22T02:33:40.756Z,15.20
2022-08-22T02:36:14.593Z,15.20
2022-08-22T02:38:51.042Z,15.20
2022-08-22T02:41:51.299Z,15.10
2022-08-22T02:44:29.384Z,15.20
2022-08-22T02:47:27.816Z,15.10
2022-08-22T02:50:00.368Z,15.10
2022-08-22T02:52:52.824Z,15.00
2022-08-22T02:55:38.956Z,15.00
2022-08-22T02:58:26.111Z,15.00
2022-08-22T03:00:58.829Z,14.90
2022-08-22T03:03:31.728Z,14.80
2022-08-22T03:06:06.678Z,14.80
2022-08-22T03:08:37.975Z,14.80
2022-08-22T03:11:21.861Z,14.80
2022-08-22T03:14:18.857Z,14.70
2022-08-22T03:16:58.332Z,14.70
2022-08-22T03:19:42.417Z,14.60
2022-08-22T03:22:32.356Z,14.60
2022-08-22T03:25:02.123Z,14.60
2022-08-22T03:27:35.830Z,14.50
2022-08-22T03:30:18.077Z,14.50
2022-08-22T03:32:59.151Z,14.50
2022-08-22T03:35:51.675Z,14.50
2022-08-22T03:38:32.149Z,14.60
2022-08-22T03:41:27.450Z,14.60
2022-08-22T03:44:31.053Z,14.50
2022-08-22T03:47:18.439Z,14.50
2022-08-22T03:50:04.539Z,14.40
2022-08-22T03:53:10.287Z,14.30
2022-08-22T03:56:24.870Z,14.20
2022-08-22T03:59:23.017Z,14.10
2022-08-22T04:02:03.452Z,14.10
2022-08-22T04:05:27.796Z,14.00
2022-08-22T04:08:26.672Z,14.00
2022-08-22T04:11:05.766Z,14.00
2022-08-22T04:13:52.744Z,13.90
2022-08-22T04:16:19.382Z,13.90
2022-08-22T04:19:08.129Z,13.90
2022-08-22T04:22:16.154Z,13.80
2022-08-22T04:25:07.130Z,13.80
2022-08-22T04:27:55.847Z,13.80
2022-08-22T04:30:37.224Z,13.70
2022-08-22T04:33:31.634Z,13.70
2022-08-22T04:36:08.346Z,13.70
2022-08-22T04:38:58.351Z,13.70
2022-08-22T04:41:43.052Z,13.70
2022-08-22T04:44:21.449Z,13.60
2022-08-22T04:46:52.857Z,13.70
2022-08-22T04:49:36.828Z,13.70
2022-08-22T04:52:35.112Z,13.70
2022-08-22T04:55:36.546Z,13.80
2022-08-22T04:58:36.585Z,13.80
2022-08-22T05:01:19.797Z,13.80
2022-08-22T05:04:13.165Z,13.90
2022-08-22T05:06:46.729Z,13.90
2022-08-22T05:09:21.672Z,14.00
2022-08-22T05:11:54.631Z,14.10
2022-08-22T05:14:33.361Z,14.10
2022-08-22T05:17:01.129Z,14.20
2022-08-22T05:19:33.186Z,14.20
2022-08-22T05:22:00.900Z,14.50
2022-08-22T05:24:37.356Z,14.70
2022-08-22T05:27:20.805Z,14.80
2022-08-22T05:29:50.800Z,14.90
2022-08-22T05:32:30.104Z,15.00
2022-08-22T05:35:01.169Z,15.10
2022-08-22T05:37:51.328Z,15.20
2022-08-22T05:40:22.350Z,15.40
2022-08-22T05:42:49.356Z,15.50
2022-08-22T05:45:18.193Z,15.60
2022-08-22T05:47:53.549Z,15.70
2022-08-22T05:50:32.208Z,15.80
2022-08-22T05:53:07.672Z,16.10
2022-08-22T05:56:02.692Z,16.10
2022-08-22T05:58:50.728Z,16.30
2022-08-22T06:01:23.485Z,16.40
2022-08-22T06:04:11.780Z,16.70
2022-08-22T06:06:52.494Z,17.10
2022-08-22T06:09:48.216Z,17.30
2022-08-22T06:12:34.607Z,17.60
2022-08-22T06:15:16.940Z,17.80
2022-08-22T06:17:55.814Z,17.70
2022-08-22T06:20:47.704Z,17.60
2022-08-22T06:23:25.114Z,17.50
2022-08-22T06:25:54.440Z,17.60
2022-08-22T06:28:25.297Z,17.80
2022-08-22T06:30:54.728Z,17.80
2022-08-22T06:33:36.433Z,17.90
2022-08-22T06:36:31.182Z,17.90
2022-08-22T06:39:09.374Z,18.00
2022-08-22T06:41:52.232Z,18.10
2022-08-22T06:44:23.811Z,18.50
2022-08-22T06:46:55.072Z,18.60
2022-08-22T06:49:25.040Z,18.40
2022-08-22T06:51:53.489Z,18.50
2022-08-22T06:54:25.752Z,18.90
2022-08-22T06:56:54.362Z,19.20
2022-08-22T06:59:28.442Z,20.20
2022-08-22T07:02:03.947Z,20.90
2022-08-22T07:04:31.312Z,21.50
2022-08-22T07:07:00.700Z,22.30
2022-08-22T07:09:40.332Z,22.80
2022-08-22T07:12:19.505Z,22.30
2022-08-22T07:14:49.941Z,22.30
2022-08-22T07:17:21.653Z,21.70
2022-08-22T07:20:05.239Z,21.70
2022-08-22T07:22:36.550Z,22.40
2022-08-22T07:25:09.200Z,22.60
2022-08-22T07:28:15.857Z,22.80
2022-08-22T07:30:55.519Z,23.00
2022-08-22T07:33:42.363Z,23.40
2022-08-22T07:36:31.841Z,23.20
2022-08-22T07:39:17.639Z,22.40
2022-08-22T07:41:52.654Z,22.00
2022-08-22T07:44:23.779Z,21.70
2022-08-22T07:47:02.445Z,21.90
2022-08-22T07:49:36.879Z,22.70
2022-08-22T07:52:12.468Z,23.00
2022-08-22T07:55:00.781Z,22.80
2022-08-22T07:57:40.856Z,23.20
2022-08-22T08:00:14.962Z,24.00
2022-08-22T08:02:50.853Z,24.10
2022-08-22T08:05:20.460Z,24.10
2022-08-22T08:07:47.916Z,24.60
2022-08-22T08:10:25.252Z,24.70
2022-08-22T08:13:02.370Z,25.20
2022-08-22T08:15:35.756Z,25.10
2022-08-22T08:18:08.357Z,25.40
2022-08-22T08:20:37.333Z,25.20
2022-08-22T08:23:08.519Z,25.40
2022-08-22T08:25:53.456Z,25.30
2022-08-22T08:28:34.171Z,25.40
2022-08-22T08:31:32.065Z,25.10
2022-08-22T08:34:29.248Z,24.70
2022-08-22T08:37:17.177Z,23.90
2022-08-22T08:39:50.794Z,24.90
2022-08-22T08:42:56.120Z,25.40
2022-08-22T08:46:00.357Z,25.00
2022-08-22T08:48:53.237Z,25.60
2022-08-22T08:51:44.404Z,26.00
2022-08-22T08:54:26.800Z,26.60
2022-08-22T08:57:18.995Z,26.10
2022-08-22T09:00:05.705Z,25.20
2022-08-22T09:03:06.405Z,25.00
2022-08-22T09:05:54.034Z,25.00
2022-08-22T09:08:39.589Z,24.70
2022-08-22T09:11:46.328Z,24.10
2022-08-22T09:14:27.068Z,24.70
2022-08-22T09:17:24.160Z,25.10
2022-08-22T09:23:22.527Z,25.30
2022-08-22T09:26:07.885Z,25.80
2022-08-22T09:28:45.171Z,25.90
2022-08-22T09:31:52.008Z,25.90
2022-08-22T09:34:30.399Z,26.20
2022-08-22T09:36:59.957Z,26.20
2022-08-22T09:39:36.897Z,26.80
2022-08-22T09:42:35.153Z,27.40
2022-08-22T09:45:34.817Z,27.60
2022-08-22T09:48:12.692Z,27.70
2022-08-22T09:51:31.295Z,28.00
2022-08-22T09:54:22.510Z,27.90
2022-08-22T09:57:00.880Z,27.60
2022-08-22T09:59:45.980Z,28.00
2022-08-22T10:02:24.650Z,28.20
2022-08-22T10:05:41.339Z,28.70
2022-08-22T10:08:26.695Z,27.90
2022-08-22T10:11:39.514Z,27.90
2022-08-22T10:14:22.308Z,28.40
2022-08-22T10:17:14.594Z,28.40
2022-08-22T10:20:04.189Z,27.30
2022-08-22T10:22:57.186Z,27.00
2022-08-22T10:25:45.277Z,27.50
2022-08-22T10:28:32.139Z,27.70
2022-08-22T10:31:18.925Z,28.40
2022-08-22T10:34:14.802Z,28.70
2022-08-22T10:36:50.401Z,29.70
2022-08-22T10:39:24.752Z,29.60
2022-08-22T10:42:19.391Z,27.90
2022-08-22T10:45:23.582Z,27.20
2022-08-22T10:48:04.558Z,28.00
2022-08-22T10:50:40.803Z,28.80
2022-08-22T10:53:51.528Z,29.00
2022-08-22T10:56:27.555Z,28.90
2022-08-22T10:59:32.336Z,29.00
2022-08-22T11:02:17.986Z,28.70
2022-08-22T11:05:06.278Z,28.90
2022-08-22T11:07:50.404Z,29.80
2022-08-22T11:10:48.862Z,30.20
2022-08-22T11:13:35.469Z,30.60
2022-08-22T11:16:16.071Z,30.60
2022-08-22T11:19:24.999Z,30.80
2022-08-22T11:22:03.643Z,29.70
2022-08-22T11:25:07.522Z,29.80
2022-08-22T11:28:12.180Z,29.60
2022-08-22T11:31:03.496Z,30.60
2022-08-22T11:33:47.784Z,31.10
2022-08-22T11:36:36.162Z,29.90
2022-08-22T11:39:25.689Z,29.40
2022-08-22T11:42:13.400Z,29.30
2022-08-22T11:44:51.211Z,28.80
2022-08-22T11:47:24.800Z,28.40
2022-08-22T11:50:14.235Z,28.50
2022-08-22T11:53:10.822Z,28.50
2022-08-22T11:56:17.026Z,28.80
2022-08-22T11:58:55.930Z,29.80
2022-08-22T12:01:37.404Z,30.20
2022-08-22T12:04:09.877Z,29.90
2022-08-22T12:06:49.816Z,29.60
2022-08-22T12:09:29.837Z,28.80
2022-08-22T12:12:02.377Z,28.70
2022-08-22T12:15:01.090Z,28.30
2022-08-22T12:17:55.741Z,28.80
2022-08-22T12:20:37.367Z,29.80
2022-08-22T12:23:13.242Z,31.30
2022-08-22T12:26:29.222Z,32.00
2022-08-22T12:29:23.342Z,32.90
2022-08-22T12:32:31.924Z,33.50
2022-08-22T12:35:29.914Z,31.90
2022-08-22T12:38:28.402Z,31.50
2022-08-22T12:41:28.334Z,32.20
2022-08-22T12:44:28.342Z,31.60
2022-08-22T12:47:05.687Z,31.10
2022-08-22T12:50:03.119Z,31.60
2022-08-22T12:52:45.239Z,31.30
2022-08-22T12:55:35.669Z,31.50
2022-08-22T12:58:40.304Z,31.50
2022-08-22T13:01:09.054Z,30.70
2022-08-22T13:03:43.559Z,32.00
2022-08-22T13:06:35.603Z,32.50
2022-08-22T13:09:11.540Z,32.70
2022-08-22T13:11:45.207Z,32.80
2022-08-22T13:14:19.029Z,32.80
2022-08-22T13:16:54.968Z,32.40
2022-08-22T13:19:25.455Z,31.40
2022-08-22T13:21:59.831Z,30.90
2022-08-22T13:24:52.391Z,30.10
2022-08-22T13:27:39.952Z,29.90
2022-08-22T13:30:39.022Z,30.00
2022-08-22T13:33:14.640Z,30.60
2022-08-22T13:35:55.484Z,30.40
2022-08-22T13:38:29.674Z,30.90
2022-08-22T13:40:58.988Z,31.60
2022-08-22T13:43:30.219Z,31.20
2022-08-22T13:45:58.397Z,30.90
2022-08-22T13:48:49.630Z,31.40
2022-08-22T13:51:48.223Z,31.30
2022-08-22T13:54:14.872Z,31.90
2022-08-22T13:57:18.112Z,32.90
2022-08-22T14:00:06.595Z,32.60
2022-08-22T14:03:08.217Z,31.70
2022-08-22T14:09:15.288Z,31.50
2022-08-22T14:12:12.179Z,31.50
2022-08-22T14:14:42.823Z,31.50
2022-08-22T14:17:20.936Z,33.30
2022-08-22T14:19:59.520Z,32.90
2022-08-22T14:22:35.175Z,32.00
2022-08-22T14:25:24.801Z,31.20
2022-08-22T14:27:57.748Z,30.10
2022-08-22T14:30:32.455Z,30.10
2022-08-22T14:33:20.124Z,30.10
2022-08-22T14:35:55.074Z,30.10
2022-08-22T14:38:32.720Z,29.90
2022-08-22T14:41:14.198Z,29.70
2022-08-22T14:43:47.382Z,29.90
2022-08-22T14:46:21.486Z,30.50
2022-08-22T14:49:16.217Z,31.40
2022-08-22T14:51:57.998Z,31.70
2022-08-22T14:54:29.232Z,31.60
2022-08-22T14:56:59.317Z,31.80
2022-08-22T14:59:31.220Z,32.80
2022-08-22T15:02:02.526Z,32.50
2022-08-22T15:04:40.415Z,31.90
2022-08-22T15:07:10.497Z,31.10
2022-08-22T15:09:43.089Z,30.80
2022-08-22T15:12:30.636Z,30.10
2022-08-22T15:15:04.061Z,30.10
2022-08-22T15:17:35.872Z,30.00
2022-08-22T15:20:10.999Z,29.80
2022-08-22T15:22:45.558Z,29.90
2022-08-22T15:25:37.379Z,30.00
2022-08-22T15:28:26.970Z,29.50
2022-08-22T15:31:07.118Z,29.40
2022-08-22T15:33:43.348Z,29.40
2022-08-22T15:36:26.971Z,29.70
2022-08-22T15:39:27.819Z,29.90
2022-08-22T15:41:55.570Z,29.30
2022-08-22T15:44:32.608Z,29.50
2022-08-22T15:47:05.752Z,29.50
2022-08-22T15:49:50.568Z,29.30
2022-08-22T15:52:33.098Z,29.00
2022-08-22T15:55:14.289Z,28.60
2022-08-22T15:57:48.427Z,28.30
2022-08-22T16:00:34.665Z,28.30
2022-08-22T16:03:11.121Z,28.10
2022-08-22T16:05:49.863Z,28.10
2022-08-22T16:08:32.797Z,28.20
2022-08-22T16:11:03.182Z,28.00
2022-08-22T16:13:29.924Z,28.10
2022-08-22T16:16:06.969Z,28.30
2022-08-22T16:18:37.056Z,28.70
2022-08-22T16:21:04.778Z,28.60
2022-08-22T16:23:46.596Z,28.50
2022-08-22T16:26:23.699Z,28.30
2022-08-22T16:28:59.625Z,28.20
2022-08-22T16:31:44.036Z,28.00
2022-08-22T16:34:16.606Z,28.00
2022-08-22T16:37:12.099Z,27.90
2022-08-22T16:40:01.699Z,27.80
2022-08-22T16:42:39.178Z,27.70
2022-08-22T16:45:24.857Z,27.40
2022-08-22T16:47:58.159Z,27.30
2022-08-22T16:50:35.250Z,27.20
2022-08-22T16:53:07.748Z,27.10
2022-08-22T16:55:35.961Z,27.00
2022-08-22T16:58:17.828Z,27.20
2022-08-22T17:01:16.831Z,27.00
2022-08-22T17:04:05.135Z,27.10
2022-08-22T17:06:37.937Z,27.10
2022-08-22T17:09:29.883Z,27.10
2022-08-22T17:12:13.493Z,27.00
2022-08-22T17:14:55.586Z,26.90
2022-08-22T17:17:50.439Z,26.70
2022-08-22T17:20:20.226Z,26.70
2022-08-22T17:23:23.115Z,26.60
2022-08-22T17:26:05.059Z,26.60
2022-08-22T17:28:41.842Z,26.70
2022-08-22T17:31:24.143Z,26.80
2022-08-22T17:34:13.803Z,26.80
2022-08-22T17:36:52.264Z,26.80
2022-08-22T17:39:53.020Z,26.70
2022-08-22T17:42:47.955Z,26.80
2022-08-22T17:46:06.322Z,26.70
2022-08-22T17:49:12.477Z,26.60
2022-08-22T17:52:05.941Z,26.20
2022-08-22T17:54:58.809Z,25.70
2022-08-22T17:57:36.794Z,25.20
2022-08-22T18:00:13.169Z,24.70
2022-08-22T18:03:00.898Z,24.30
2022-08-22T18:05:35.472Z,24.20
2022-08-22T18:11:27.596Z,24.00
2022-08-22T18:14:24.596Z,24.00
2022-08-22T18:16:54.820Z,23.90
2022-08-22T18:19:36.621Z,23.90
2022-08-22T18:22:10.924Z,23.80
2022-08-22T18:25:08.922Z,23.60
2022-08-22T18:27:53.713Z,23.70
2022-08-22T18:30:44.948Z,23.70
2022-08-22T18:33:19.843Z,23.70
2022-08-22T18:35:53.947Z,23.60
2022-08-22T18:38:31.649Z,23.60
2022-08-22T18:41:07.356Z,23.50
2022-08-22T18:43:40.131Z,23.40
2022-08-22T18:46:38.771Z,23.30
2022-08-22T18:49:20.688Z,23.40
2022-08-22T18:52:05.634Z,23.40
2022-08-22T18:55:01.404Z,23.40
2022-08-22T18:58:05.184Z,23.30
2022-08-22T19:00:58.313Z,23.30
2022-08-22T19:03:39.327Z,23.20
2022-08-22T19:06:28.306Z,23.20
2022-08-22T19:09:04.274Z,23.10
2022-08-22T19:12:01.606Z,23.10
2022-08-22T19:14:45.711Z,23.00
2022-08-22T19:17:37.519Z,22.90
2022-08-22T19:20:27.794Z,23.00
2022-08-22T19:23:32.686Z,23.00
2022-08-22T19:26:24.219Z,22.90
2022-08-22T19:29:17.347Z,22.90
2022-08-22T19:31:52.173Z,22.80
2022-08-22T19:34:28.269Z,22.80
2022-08-22T19:37:32.135Z,22.80
2022-08-22T19:40:01.258Z,22.80
2022-08-22T19:42:31.465Z,22.80
2022-08-22T19:45:09.772Z,22.80
2022-08-22T19:47:42.113Z,22.70
2022-08-22T19:50:14.947Z,22.60
2022-08-22T19:53:06.442Z,22.50
2022-08-22T19:55:36.734Z,22.40
2022-08-22T19:58:17.724Z,22.30
2022-08-22T20:01:11.804Z,22.40
2022-08-22T20:03:47.550Z,22.50
2022-08-22T20:06:51.650Z,22.40
2022-08-22T20:09:53.306Z,22.40
2022-08-22T20:12:28.980Z,22.40
2022-08-22T20:14:56.675Z,22.40
2022-08-22T20:17:26.341Z,22.40
2022-08-22T20:23:14.808Z,22.20
2022-08-22T20:25:50.157Z,22.30
2022-08-22T20:28:25.973Z,22.30
2022-08-22T20:30:58.880Z,22.20
2022-08-22T20:33:34.483Z,22.10
2022-08-22T20:36:06.098Z,22.00
2022-08-22T20:38:40.641Z,22.00
2022-08-22T20:41:41.247Z,21.90
2022-08-22T20:44:15.668Z,22.00
2022-08-22T20:46:53.589Z,22.00
2022-08-22T20:49:28.625Z,22.00
2022-08-22T20:51:59.753Z,22.00
2022-08-22T20:54:30.551Z,22.00
2022-08-22T20:57:01.859Z,22.00
2022-08-22T20:59:37.934Z,22.10
2022-08-22T21:02:20.055Z,22.00
2022-08-22T21:04:56.910Z,22.10
2022-08-22T21:07:36.952Z,22.10
2022-08-22T21:10:44.920Z,22.20
2022-08-22T21:13:29.123Z,22.40
2022-08-22T21:16:00.434Z,22.40
2022-08-22T21:18:39.568Z,22.50
2022-08-22T21:21:12.405Z,22.50
2022-08-22T21:23:47.207Z,22.60
2022-08-22T21:26:27.763Z,22.50
2022-08-22T21:29:14.306Z,22.50
2022-08-22T21:32:07.703Z,22.40
2022-08-22T21:47:30.203Z,22.10
2022-08-22T21:55:28.278Z,22.00
2022-08-22T21:59:10.683Z,22.00
2022-08-22T22:02:43.702Z,22.00
2022-08-22T22:06:01.265Z,22.10
2022-08-22T22:12:25.641Z,22.30
2022-08-22T22:15:32.796Z,22.30
2022-08-22T22:18:00.801Z,22.30
2022-08-22T22:20:28.326Z,22.30
2022-08-22T22:22:55.174Z,22.30
2022-08-22T22:25:41.226Z,22.30
2022-08-22T22:28:21.710Z,22.30
2022-08-22T22:30:51.337Z,22.40
2022-08-22T22:33:22.768Z,22.40
2022-08-22T22:35:50.735Z,22.40
2022-08-22T22:38:23.242Z,22.40
2022-08-22T22:40:51.355Z,22.50
2022-08-22T22:43:18.095Z,22.40
2022-08-22T22:45:44.785Z,22.40
2022-08-22T22:48:11.605Z,22.30
2022-08-22T22:50:44.532Z,22.30
2022-08-22T22:53:12.219Z,22.30
2022-08-22T22:55:59.509Z,22.40
2022-08-22T22:58:26.698Z,22.40
2022-08-22T23:00:53.417Z,22.40
2022-08-22T23:03:20.277Z,22.30
2022-08-22T23:05:47.005Z,22.30
2022-08-22T23:08:13.657Z,22.30
2022-08-22T23:10:40.332Z,22.30
2022-08-22T23:13:07.106Z,22.30
2022-08-22T23:15:33.824Z,22.30
2022-08-22T23:18:00.686Z,22.40
2022-08-22T23:20:27.596Z,22.30
2022-08-22T23:22:54.249Z,22.30
2022-08-22T23:25:20.972Z,22.30
2022-08-22T23:27:52.310Z,22.20
2022-08-22T23:30:19.966Z,22.10
2022-08-22T23:32:46.609Z,22.10
2022-08-22T23:35:13.479Z,22.10
2022-08-22T23:37:40.189Z,22.10
2022-08-22T23:40:08.839Z,22.10
2022-08-22T23:42:35.621Z,22.10
2022-08-22T23:45:02.328Z,22.20
2022-08-22T23:47:29.064Z,22.20
2022-08-22T23:49:55.768Z,22.10
2022-08-22T23:52:22.448Z,22.10
2022-08-22T23:54:51.564Z,22.10
2022-08-22T23:57:26.299Z,22.10
2022-08-22T23:59:57.892Z,22.10
